Jacksonville International Airport Jacksonville US
ICAO: KJAX
IATA: JAX
Category: Large
Scheduled Services: Yes

Elevation: 30 ft
TransAlt. 18000 ft.

Airport Communications:
APP/DEP:118
ATIS:125.85
CLNC DEL:119.5
GND:121.9
ANG MAINT:25.125
ANG SOF:27.39
ANG COMD POST:25.125
TWR:118.3
UNICOM:122.95

KJAX Zoom In..

Runways:

(A) RW 08 length 10000 ft width 150 ft
ILS 110.70 / hdg 77

(B) RW 14 length 7701 ft width 150 ft
ILS 110.50 / hdg 137

(C) RW 26 length 10000 ft width 150 ft
ILS 110.30 / hdg 257

(D) RW 32 length 7701 ft width 150 ft
---- / hdg 317

Location; KJAX
Day. 23 / Time. 06.56 Zulu
* Altimeter: 29.80
* Temperature: 21° c. 69.8°f.
* Wind from: 190° Speed 04 kn.
Dewpoint: 20° c.
Visibility: 10 Statute Miles.
Clouds: Broken 25000 ft.

KJAX 230656Z 19004KT 10SM BKN250 21/20 A2980 RMK AO2 SLP091 T02060200 $


Wind From 190°
Speed 04 kn.

 
 
jpsmedia.com for Web Design worldairports.se 2018   terms of use